Time;durP1;ratioP1;P1;durP2;ratioP2;P2;SDS_P1;SDS_P2;PMS_P1;PMS_P2;Temp;Humidity;BMP_temperature;BMP_pressure;BME280_temperature;BME280_humidity;BME280_pressure;Samples;Min_cycle;Max_cycle;Signal;HPM_P1;HPM_P2
2022/05/06 00:00:11;;;;;;;7.00;6.30;;;;;;;19.57;42.20;95672.38;5071126;28;20465;-62
2022/05/06 00:02:38;;;;;;;6.80;6.10;;;;;;;19.58;42.04;95668.66;5071592;28;20430;-64
2022/05/06 00:05:06;;;;;;;7.70;5.80;;;;;;;19.56;42.05;95684.88;5070936;28;20500;-61
2022/05/06 00:07:34;;;;;;;7.17;6.47;;;;;;;19.51;42.38;95686.81;5071475;28;21035;-62
2022/05/06 00:10:03;;;;;;;9.73;7.20;;;;;;;19.53;42.47;95677.47;5070835;28;20441;-61
2022/05/06 00:12:31;;;;;;;8.10;6.57;;;;;;;19.65;42.12;95679.69;5071215;28;20965;-64
2022/05/06 00:14:58;;;;;;;8.27;6.67;;;;;;;19.64;41.90;95668.25;5071116;28;20461;-61
2022/05/06 00:17:25;;;;;;;8.23;7.40;;;;;;;19.12;42.70;95682.63;5071067;28;20442;-63
2022/05/06 00:19:52;;;;;;;8.20;7.37;;;;;;;19.36;43.07;95687.84;5071128;28;20952;-63
2022/05/06 00:22:19;;;;;;;10.13;7.43;;;;;;;19.36;42.51;95687.09;5071462;28;20477;-63
2022/05/06 00:24:46;;;;;;;8.47;7.23;;;;;;;19.29;42.50;95681.34;5070754;28;20878;-65
2022/05/06 00:27:14;;;;;;;9.50;7.10;;;;;;;19.42;42.57;95685.91;5053526;28;20865;-60
2022/05/06 00:29:40;;;;;;;10.07;6.83;;;;;;;19.32;42.84;95691.41;5070962;28;20961;-61
2022/05/06 00:32:08;;;;;;;7.60;6.33;;;;;;;19.38;42.48;95692.91;5052213;28;20465;-60
2022/05/06 00:34:35;;;;;;;9.10;6.80;;;;;;;19.26;42.91;95692.53;5052302;28;20465;-62
2022/05/06 00:37:03;;;;;;;7.70;6.40;;;;;;;19.23;42.38;95686.72;5069688;28;20891;-60
2022/05/06 00:39:30;;;;;;;8.83;7.43;;;;;;;19.27;42.66;95694.88;5073571;28;20442;-61
2022/05/06 00:41:57;;;;;;;9.33;7.43;;;;;;;19.39;42.37;95697.13;5071790;28;21118;-63
2022/05/06 00:44:25;;;;;;;9.20;7.53;;;;;;;19.36;42.29;95695.06;5091627;28;20470;-66
2022/05/06 00:46:54;;;;;;;10.80;7.67;;;;;;;19.37;42.53;95689.44;5090611;28;20443;-63
2022/05/06 00:49:22;;;;;;;7.77;6.97;;;;;;;19.35;42.65;95680.19;5091148;28;20422;-62
2022/05/06 00:51:51;;;;;;;9.27;7.70;;;;;;;19.13;42.51;95694.84;5090783;28;20927;-60
2022/05/06 00:54:21;;;;;;;9.83;7.87;;;;;;;19.10;42.74;95694.66;5072562;28;20437;-62
2022/05/06 00:56:50;;;;;;;10.37;7.63;;;;;;;19.19;42.70;95699.03;5072068;28;20492;-65
2022/05/06 00:59:17;;;;;;;8.90;8.00;;;;;;;19.10;42.95;95695.41;5090171;28;20884;-65
2022/05/06 01:01:44;;;;;;;9.80;7.87;;;;;;;18.27;44.32;95699.72;5090007;28;20437;-61
2022/05/06 01:04:17;;;;;;;10.23;7.70;;;;;;;18.68;44.00;95700.03;5072528;28;20915;-61
2022/05/06 01:06:47;;;;;;;13.10;7.37;;;;;;;18.72;44.17;95699.16;5090455;28;20437;-65
2022/05/06 01:09:16;;;;;;;9.80;7.70;;;;;;;18.86;43.73;95694.72;5071958;28;20818;-63
2022/05/06 01:11:46;;;;;;;12.93;8.47;;;;;;;18.82;43.56;95691.06;5072039;28;20433;-64
2022/05/06 01:14:31;;;;;;;9.47;8.10;;;;;;;18.92;43.74;95698.09;5072103;28;20433;-59
2022/05/06 01:17:03;;;;;;;11.63;8.80;;;;;;;18.80;43.60;95689.75;5071687;28;20550;-64
2022/05/06 01:19:30;;;;;;;10.77;8.20;;;;;;;18.87;43.65;95701.59;5072028;28;20449;-61
2022/05/06 01:21:57;;;;;;;11.10;7.97;;;;;;;19.05;42.79;95702.66;5072154;28;20441;-63
2022/05/06 01:24:25;;;;;;;9.07;8.20;;;;;;;19.06;43.16;95699.75;5063465;28;20449;-63
2022/05/06 01:27:00;;;;;;;9.70;8.47;;;;;;;18.78;43.76;95698.03;5071325;28;20886;-65
2022/05/06 01:29:29;;;;;;;10.07;8.87;;;;;;;19.03;42.94;95700.31;5071506;28;20819;-61
2022/05/06 01:31:57;;;;;;;9.87;7.73;;;;;;;19.13;42.87;95699.38;5071038;28;20449;-59
2022/05/06 01:34:27;;;;;;;10.37;7.73;;;;;;;18.87;43.64;95698.94;5089998;28;20437;-59
2022/05/06 01:36:57;;;;;;;9.70;8.17;;;;;;;18.71;43.45;95679.00;5089820;28;20585;-64
2022/05/06 01:39:32;;;;;;;13.40;8.63;;;;;;;18.98;43.18;95688.97;5070376;28;20449;-65
2022/05/06 01:42:06;;;;;;;10.43;8.87;;;;;;;18.89;43.28;95688.84;5089623;28;20792;-64
2022/05/06 01:44:42;;;;;;;10.33;9.33;;;;;;;19.00;43.12;95684.94;5071537;28;20448;-61
2022/05/06 01:47:26;;;;;;;11.63;9.10;;;;;;;19.19;42.93;95693.69;5071119;28;20532;-63
2022/05/06 01:49:58;;;;;;;10.80;9.23;;;;;;;19.00;42.85;95690.25;5071257;28;20445;-62
2022/05/06 01:52:30;;;;;;;9.77;8.77;;;;;;;19.23;42.68;95689.38;5071256;28;20459;-60
2022/05/06 01:54:57;;;;;;;10.90;8.47;;;;;;;18.93;42.94;95684.53;5071160;28;20437;-62
2022/05/06 01:57:26;;;;;;;12.00;9.10;;;;;;;18.86;43.13;95688.63;5071255;28;20488;-64
2022/05/06 01:59:55;;;;;;;11.73;8.40;;;;;;;18.62;43.69;95694.00;5070624;28;20480;-65
2022/05/06 02:02:23;;;;;;;10.33;8.90;;;;;;;18.71;43.92;95692.28;5071124;28;20487;-61
2022/05/06 02:07:42;;;;;;;9.47;8.50;;;;;;;18.61;43.87;95692.41;5071134;28;20904;-63
2022/05/06 02:10:10;;;;;;;9.87;8.87;;;;;;;18.64;44.17;95691.84;5071080;28;20453;-62
2022/05/06 02:12:40;;;;;;;10.97;9.20;;;;;;;18.65;43.63;95698.72;5089113;28;20448;-62
2022/05/06 02:15:17;;;;;;;12.40;9.07;;;;;;;18.81;43.75;95689.47;5070719;28;20440;-61
2022/05/06 02:18:04;;;;;;;12.00;8.93;;;;;;;18.68;44.06;95692.88;5071403;28;20464;-64
2022/05/06 02:20:51;;;;;;;11.47;9.37;;;;;;;18.81;43.58;95689.47;5056453;28;20449;-63
2022/05/06 02:23:51;;;;;;;12.40;9.50;;;;;;;18.51;44.19;95702.38;5070531;28;20448;-61
2022/05/06 02:26:56;;;;;;;9.73;8.57;;;;;;;18.43;43.96;95701.13;5026192;28;20501;-61
2022/05/06 02:29:24;;;;;;;13.50;9.27;;;;;;;18.32;44.09;95699.66;5026454;28;20447;-64
2022/05/06 02:34:37;;;;;;;10.43;9.23;;;;;;;18.34;44.21;95689.53;5089304;28;20484;-61
2022/05/06 02:37:08;;;;;;;9.70;8.70;;;;;;;18.50;44.41;95700.81;5070753;28;20479;-61
2022/05/06 02:39:44;;;;;;;10.10;8.37;;;;;;;18.62;44.03;95693.19;5070739;28;20452;-60
2022/05/06 02:42:16;;;;;;;10.00;9.00;;;;;;;18.40;43.55;95680.44;5070427;28;20474;-64
2022/05/06 02:44:47;;;;;;;9.87;8.43;;;;;;;18.56;43.88;95689.81;5070188;28;20524;-63
2022/05/06 02:47:15;;;;;;;13.87;9.03;;;;;;;18.45;44.08;95692.91;5070554;28;20453;-64
2022/05/06 02:49:43;;;;;;;10.07;9.07;;;;;;;18.43;44.08;95690.53;5070462;28;20445;-64
2022/05/06 02:52:13;;;;;;;12.77;9.67;;;;;;;18.57;43.71;95678.16;5070565;28;20990;-63
2022/05/06 02:54:40;;;;;;;10.43;9.33;;;;;;;18.52;44.04;95694.13;5088956;28;20440;-62
2022/05/06 02:57:11;;;;;;;11.30;9.60;;;;;;;18.53;44.48;95692.25;5070517;28;20565;-62
2022/05/06 02:59:40;;;;;;;10.73;9.47;;;;;;;18.51;44.08;95687.25;5073243;28;20507;-64
2022/05/06 03:02:08;;;;;;;10.63;9.40;;;;;;;18.38;44.59;95698.53;5093285;28;20479;-64
2022/05/06 03:04:36;;;;;;;12.60;9.23;;;;;;;18.33;44.38;95701.25;5074550;28;20461;-63
2022/05/06 03:07:06;;;;;;;10.67;9.50;;;;;;;18.45;44.34;95701.63;5074038;28;21171;-64
2022/05/06 03:09:42;;;;;;;12.20;10.00;;;;;;;18.28;44.87;95698.66;5074715;28;20432;-62
2022/05/06 03:12:10;;;;;;;9.70;8.70;;;;;;;18.39;44.64;95700.13;5093249;28;20429;-62
2022/05/06 03:14:47;;;;;;;11.43;9.33;;;;;;;18.34;44.89;95700.16;5074033;28;20559;-62
2022/05/06 03:17:35;;;;;;;11.53;10.30;;;;;;;18.40;44.37;95712.28;5074095;28;21325;-64
2022/05/06 03:20:06;;;;;;;12.50;9.90;;;;;;;18.33;44.91;95706.56;5073991;28;20454;-63
2022/05/06 03:22:41;;;;;;;18.23;11.00;;;;;;;18.23;44.56;95711.97;5074241;28;20455;-65
2022/05/06 03:25:10;;;;;;;19.13;10.87;;;;;;;18.37;44.23;95704.91;5091653;28;20449;-66
2022/05/06 03:30:25;;;;;;;19.50;11.43;;;;;;;18.30;44.89;95712.44;5091647;28;21002;-63
2022/05/06 03:33:01;;;;;;;19.37;11.93;;;;;;;18.22;45.28;95715.69;5092572;28;20432;-63
2022/05/06 03:35:33;;;;;;;14.40;11.37;;;;;;;18.26;44.69;95719.38;5073739;28;20448;-60
2022/05/06 03:38:01;;;;;;;18.20;12.13;;;;;;;18.29;44.49;95724.09;5074471;28;20433;-63
2022/05/06 03:40:29;;;;;;;16.17;11.57;;;;;;;18.34;43.95;95723.28;5091949;28;20452;-62
2022/05/06 03:43:00;;;;;;;17.33;11.93;;;;;;;18.25;44.62;95728.38;5073557;28;20441;-64
2022/05/06 03:45:27;;;;;;;18.67;11.27;;;;;;;18.04;45.30;95729.69;5072491;28;21030;-65
2022/05/06 03:47:57;;;;;;;16.93;10.97;;;;;;;18.25;44.20;95736.34;5091803;28;20474;-62
2022/05/06 03:53:16;;;;;;;17.73;11.47;;;;;;;17.91;44.55;95739.13;5073977;28;21049;-63
2022/05/06 03:55:47;;;;;;;14.33;9.97;;;;;;;17.48;44.95;95747.19;5052529;28;20438;-61
2022/05/06 03:58:14;;;;;;;16.40;10.17;;;;;;;17.70;44.13;95740.34;5054116;28;20499;-66
2022/05/06 04:00:42;;;;;;;12.03;9.60;;;;;;;17.77;43.92;95745.34;5052923;28;20485;-60
2022/05/06 04:03:11;;;;;;;15.17;10.03;;;;;;;17.70;44.32;95739.59;5053502;28;20452;-64
2022/05/06 04:05:38;;;;;;;14.67;9.53;;;;;;;17.81;43.78;95744.50;5052905;28;20453;-62
2022/05/06 04:08:07;;;;;;;14.83;10.20;;;;;;;17.98;43.89;95746.72;5053662;28;20438;-62
2022/05/06 04:10:34;;;;;;;16.67;10.63;;;;;;;17.91;43.89;95746.28;5053113;28;20553;-61
2022/05/06 04:13:02;;;;;;;16.30;11.70;;;;;;;17.91;43.99;95746.28;5053429;28;20504;-64
2022/05/06 04:15:32;;;;;;;19.03;13.07;;;;;;;17.99;43.84;95758.94;5052953;28;20442;-64
2022/05/06 04:18:01;;;;;;;19.50;12.30;;;;;;;17.93;43.71;95749.44;5069989;28;20481;-61
2022/05/06 04:23:32;;;;;;;18.40;12.87;;;;;;;18.01;43.92;95738.22;5053267;28;20443;-63
2022/05/06 04:26:11;;;;;;;20.03;12.67;;;;;;;18.18;43.90;95751.81;5053031;28;20438;-64
2022/05/06 04:28:45;;;;;;;18.90;12.17;;;;;;;18.11;44.42;95748.72;5053448;28;20446;-61
2022/05/06 04:31:13;;;;;;;18.23;11.93;;;;;;;18.23;43.82;95752.56;5052574;28;20897;-66
2022/05/06 04:33:42;;;;;;;14.53;11.00;;;;;;;18.10;43.57;95757.75;5052983;28;20538;-65
2022/05/06 04:36:19;;;;;;;17.93;11.83;;;;;;;18.17;43.76;95755.56;5052387;28;20477;-64
2022/05/06 04:38:51;;;;;;;28.00;12.37;;;;;;;18.28;43.97;95746.41;5053490;28;20519;-64
2022/05/06 04:41:19;;;;;;;22.80;12.87;;;;;;;18.39;43.66;95739.91;5067091;28;20446;-61
2022/05/06 04:43:47;;;;;;;29.50;13.50;;;;;;;18.44;43.53;95750.50;5069164;28;20450;-64
2022/05/06 04:46:17;;;;;;;19.37;13.67;;;;;;;18.35;44.11;95754.81;5050577;28;20456;-65
2022/05/06 04:48:45;;;;;;;20.07;14.17;;;;;;;18.23;44.06;95754.41;5052839;28;20450;-62
2022/05/06 04:51:15;;;;;;;22.70;15.40;;;;;;;18.20;44.37;95761.09;5069019;28;20479;-60
2022/05/06 04:53:43;;;;;;;21.03;14.63;;;;;;;18.23;44.99;95771.13;5070815;28;20450;-62
2022/05/06 04:56:10;;;;;;;23.57;16.03;;;;;;;18.33;45.31;95764.94;5052500;28;20486;-63
2022/05/06 04:58:40;;;;;;;19.20;14.63;;;;;;;18.34;44.58;95760.41;5069094;28;20441;-62
2022/05/06 05:01:17;;;;;;;20.40;15.23;;;;;;;18.40;44.09;95769.88;5051812;28;20484;-63
2022/05/06 05:03:46;;;;;;;20.50;14.30;;;;;;;18.27;44.35;95766.03;5069152;28;20540;-61
2022/05/06 05:06:13;;;;;;;19.43;12.30;;;;;;;18.61;43.68;95772.03;5070494;28;20446;-60
2022/05/06 05:08:41;;;;;;;18.73;12.07;;;;;;;18.68;43.28;95780.47;5052481;28;20504;-60
2022/05/06 05:11:08;;;;;;;18.73;14.67;;;;;;;18.53;43.92;95785.16;5051909;28;20441;-60
2022/05/06 05:13:42;;;;;;;14.17;11.80;;;;;;;18.63;43.45;95791.13;5051599;28;20446;-63
2022/05/06 05:16:18;;;;;;;19.57;14.03;;;;;;;18.68;43.48;95780.47;5051340;28;20554;-64
2022/05/06 05:18:45;;;;;;;22.07;13.57;;;;;;;18.59;43.11;95779.53;5052059;28;20450;-61
2022/05/06 05:21:13;;;;;;;14.70;11.77;;;;;;;18.40;43.47;95773.34;5051040;28;20466;-60
2022/05/06 05:23:40;;;;;;;16.27;10.13;;;;;;;18.40;44.08;95781.28;5051867;28;20971;-61
2022/05/06 05:26:08;;;;;;;12.53;9.90;;;;;;;18.49;43.36;95782.28;5051382;28;20435;-65
2022/05/06 05:28:37;;;;;;;12.50;10.20;;;;;;;18.56;43.31;95766.81;5051991;28;20446;-64
2022/05/06 05:31:06;;;;;;;12.23;10.23;;;;;;;18.67;43.74;95781.53;5068940;28;20533;-64
2022/05/06 05:33:36;;;;;;;11.97;9.87;;;;;;;18.64;42.43;95776.81;5051824;28;20921;-64
2022/05/06 05:36:04;;;;;;;13.53;9.20;;;;;;;18.68;43.39;95772.50;5051511;28;20451;-63
2022/05/06 05:38:31;;;;;;;14.63;9.43;;;;;;;18.82;42.88;95772.59;5052118;28;20437;-62
2022/05/06 05:41:00;;;;;;;14.80;9.30;;;;;;;18.94;42.38;95771.09;5051577;28;20537;-63
2022/05/06 05:49:02;;;;;;;14.33;9.80;;;;;;;19.10;42.53;95771.69;5051928;28;20456;-63
2022/05/06 05:51:32;;;;;;;15.40;9.27;;;;;;;19.15;42.25;95772.41;5051212;28;20449;-62
2022/05/06 05:54:00;;;;;;;18.33;11.23;;;;;;;19.12;42.70;95762.34;5051861;28;20442;-64
2022/05/06 05:56:32;;;;;;;17.93;10.43;;;;;;;19.42;42.29;95765.66;5051064;28;20494;-62
2022/05/06 05:58:59;;;;;;;19.43;10.40;;;;;;;19.39;41.98;95771.56;5051187;28;20496;-61
2022/05/06 06:01:29;;;;;;;14.93;10.37;;;;;;;19.61;41.82;95774.41;5068973;28;20533;-63
2022/05/06 06:03:59;;;;;;;17.43;9.83;;;;;;;19.06;42.78;95768.81;5051221;28;20449;-64
2022/05/06 06:06:33;;;;;;;20.20;10.17;;;;;;;19.23;42.53;95771.75;5051267;28;20548;-64
2022/05/06 06:09:00;;;;;;;17.80;10.00;;;;;;;19.18;43.00;95771.81;5051334;28;20851;-61
2022/05/06 06:11:29;;;;;;;13.77;10.10;;;;;;;19.42;42.32;95770.97;5050752;28;20873;-62
2022/05/06 06:13:56;;;;;;;17.90;10.13;;;;;;;19.62;42.17;95770.66;5050970;28;20461;-63
2022/05/06 06:16:26;;;;;;;21.83;9.93;;;;;;;19.59;41.72;95772.03;5049990;28;21014;-65
2022/05/06 06:18:55;;;;;;;17.60;11.10;;;;;;;19.51;41.82;95769.22;5051261;28;21077;-60
2022/05/06 06:21:23;;;;;;;17.60;11.37;;;;;;;19.73;41.89;95770.19;5050515;28;20457;-62
2022/05/06 06:23:51;;;;;;;18.30;10.50;;;;;;;20.13;41.19;95766.03;5050149;28;20854;-58
2022/05/06 06:26:17;;;;;;;23.37;11.87;;;;;;;20.00;41.55;95772.13;5067113;28;20438;-62
2022/05/06 06:28:46;;;;;;;16.10;11.03;;;;;;;20.03;41.36;95771.56;5050811;28;20454;-61
2022/05/06 06:31:14;;;;;;;17.00;10.00;;;;;;;20.05;41.46;95753.44;5050277;28;20434;-64
2022/05/06 06:33:43;;;;;;;14.97;9.97;;;;;;;20.50;40.75;95763.25;5050030;28;20839;-64
2022/05/06 06:36:14;;;;;;;16.53;9.07;;;;;;;20.50;40.82;95754.47;5050777;28;20898;-62
2022/05/06 06:38:43;;;;;;;14.40;7.80;;;;;;;20.62;39.74;95752.88;5051053;28;20448;-63
2022/05/06 06:41:10;;;;;;;9.83;7.27;;;;;;;20.65;39.71;95746.19;5050761;28;20446;-63
2022/05/06 06:43:41;;;;;;;8.97;6.90;;;;;;;20.61;40.11;95763.81;5068595;28;20537;-60
2022/05/06 06:46:26;;;;;;;10.60;7.53;;;;;;;20.17;40.18;95748.44;5068059;28;20913;-62
2022/05/06 06:49:22;;;;;;;12.80;7.80;;;;;;;20.57;39.50;95746.84;5068849;28;20452;-60
2022/05/06 06:51:59;;;;;;;9.80;6.93;;;;;;;20.32;39.73;95740.19;5050322;28;20481;-61
2022/05/06 06:54:26;;;;;;;12.43;7.30;;;;;;;20.49;39.75;95753.66;5068792;28;20422;-64
2022/05/06 06:56:53;;;;;;;6.90;6.20;;;;;;;20.57;39.61;95763.63;5068199;28;20457;-63
2022/05/06 06:59:19;;;;;;;8.17;7.33;;;;;;;20.85;39.44;95746.56;5068678;28;20490;-63
2022/05/06 07:01:46;;;;;;;10.80;6.90;;;;;;;20.75;39.48;95752.06;5068196;28;20457;-62
2022/05/06 07:04:13;;;;;;;10.80;6.43;;;;;;;20.84;39.39;95750.28;5068583;28;20478;-63
2022/05/06 07:12:11;;;;;;;9.63;6.40;;;;;;;20.50;39.42;95755.25;5068463;28;20437;-63
2022/05/06 07:14:40;;;;;;;7.20;5.60;;;;;;;20.88;38.84;95745.94;5049662;28;20458;-62
2022/05/06 07:17:07;;;;;;;9.17;6.10;;;;;;;21.33;40.35;95740.72;5066206;28;20481;-63
2022/05/06 07:19:34;;;;;;;15.83;6.00;;;;;;;21.17;41.65;95749.06;5067134;28;20439;-63
2022/05/06 07:22:01;;;;;;;14.47;6.50;;;;;;;21.34;39.98;95742.28;5067275;28;20481;-64
2022/05/06 07:24:28;;;;;;;8.83;6.10;;;;;;;21.71;40.22;95741.94;5067442;28;20438;-66
2022/05/06 07:26:55;;;;;;;8.50;6.70;;;;;;;21.76;38.39;95744.47;5066859;28;20430;-62
2022/05/06 07:29:22;;;;;;;66.07;56.40;;;;;;;21.75;38.40;95753.56;5051424;28;20484;-66
2022/05/06 07:31:48;;;;;;;18.30;13.97;;;;;;;21.71;38.03;95741.94;5066976;28;20440;-61
2022/05/06 07:34:16;;;;;;;11.83;7.43;;;;;;;22.13;38.56;95733.41;5049575;28;20972;-65
2022/05/06 07:36:43;;;;;;;9.70;7.53;;;;;;;22.18;38.29;95741.28;5067509;28;20445;-63
2022/05/06 07:39:12;;;;;;;9.40;7.90;;;;;;;22.22;38.26;95730.75;5067373;28;20527;-67
2022/05/06 07:41:39;;;;;;;8.97;6.43;;;;;;;22.51;37.44;95736.38;5067104;28;20441;-66
2022/05/06 07:44:07;;;;;;;9.67;6.40;;;;;;;22.68;37.38;95734.53;5067655;28;20445;-61
2022/05/06 07:46:35;;;;;;;7.90;6.63;;;;;;;22.76;38.04;95736.47;5070535;28;20441;-66
2022/05/06 07:49:03;;;;;;;12.13;6.73;;;;;;;22.93;37.47;95736.50;5071209;28;21031;-65
2022/05/06 07:51:31;;;;;;;11.20;6.20;;;;;;;22.52;36.83;95735.25;5070552;28;20790;-65
2022/05/06 07:53:58;;;;;;;15.43;6.87;;;;;;;22.61;37.16;95739.56;5070385;28;20437;-64
2022/05/06 07:56:26;;;;;;;9.40;6.43;;;;;;;22.96;36.73;95735.06;5072352;28;21037;-64
2022/05/06 07:58:54;;;;;;;21.97;14.23;;;;;;;22.91;36.06;95733.34;5056515;28;20481;-63
2022/05/06 08:04:32;;;;;;;13.50;10.00;;;;;;;23.03;36.19;95725.50;5090337;28;20452;-64
2022/05/06 08:06:54;;;;;;;19.83;6.47;;;;;;;22.95;35.96;95728.97;5090516;28;20955;-61
2022/05/06 08:09:21;;;;;;;24.17;6.57;;;;;;;23.14;36.19;95732.09;5090523;28;20522;-60
2022/05/06 08:11:49;;;;;;;6.97;5.87;;;;;;;23.26;36.44;95733.38;5089925;28;20460;-62
2022/05/06 08:14:17;;;;;;;12.40;6.03;;;;;;;23.23;36.10;95729.44;5091914;28;20819;-61
2022/05/06 08:16:46;;;;;;;12.73;8.47;;;;;;;23.05;35.98;95728.63;5088769;28;20448;-61
2022/05/06 08:19:13;;;;;;;18.67;14.67;;;;;;;23.33;36.17;95723.00;5090903;28;20896;-61
2022/05/06 08:21:45;;;;;;;10.80;6.97;;;;;;;23.31;35.86;95719.88;5090518;28;20183;-61
2022/05/06 08:24:12;;;;;;;11.97;8.33;;;;;;;23.13;36.20;95730.53;5090944;28;20242;-61
2022/05/06 08:26:39;;;;;;;7.10;5.37;;;;;;;23.38;35.66;95725.53;5087609;28;20482;-60
2022/05/06 08:29:05;;;;;;;7.20;6.03;;;;;;;23.73;35.57;95721.72;5091618;28;20854;-61
2022/05/06 08:31:37;;;;;;;21.33;15.50;;;;;;;23.21;34.93;95731.63;5091460;28;20432;-66
2022/05/06 08:34:08;;;;;;;107.87;96.77;;;;;;;23.73;35.85;95721.72;5091230;28;20627;-61
2022/05/06 08:36:38;;;;;;;37.97;11.27;;;;;;;23.67;36.88;95721.09;5091260;28;20437;-67
2022/05/06 08:39:05;;;;;;;17.57;6.20;;;;;;;23.78;35.67;95724.22;5078544;28;20227;-62
2022/05/06 08:41:35;;;;;;;12.23;6.13;;;;;;;23.30;36.34;95727.13;5090746;28;20202;-62
2022/05/06 08:52:34;;;;;;;8.60;6.70;;;;;;;24.24;36.49;95715.44;5088612;28;20750;-66
2022/05/06 08:55:04;;;;;;;6.60;5.30;;;;;;;24.04;35.25;95708.91;5087572;28;20194;-63
2022/05/06 08:57:31;;;;;;;15.67;13.23;;;;;;;24.42;34.50;95709.69;5087483;28;20652;-62
2022/05/06 08:59:58;;;;;;;7.33;5.87;;;;;;;23.91;34.56;95717.88;5089578;28;20227;-64
2022/05/06 09:02:26;;;;;;;12.00;6.47;;;;;;;24.08;35.37;95707.97;5091484;28;20567;-64
2022/05/06 09:04:53;;;;;;;13.93;6.30;;;;;;;24.29;34.70;95710.69;5090679;28;20196;-66
2022/05/06 09:07:22;;;;;;;21.87;9.00;;;;;;;24.37;34.82;95712.56;5090563;28;20943;-65
2022/05/06 09:10:15;;;;;;;12.53;6.27;;;;;;;24.31;35.13;95719.19;5089864;28;20203;-63
2022/05/06 09:12:44;;;;;;;5.60;5.10;;;;;;;24.28;34.09;95701.09;5090545;28;20693;-69
2022/05/06 09:18:03;;;;;;;36.50;20.77;;;;;;;24.71;34.30;95699.00;5071751;28;20223;-66
2022/05/06 09:20:30;;;;;;;17.33;7.77;;;;;;;25.36;34.08;95692.22;5090225;28;20187;-68
2022/05/06 09:22:57;;;;;;;11.07;6.37;;;;;;;25.29;34.42;95683.91;5090870;28;20200;-68
2022/05/06 09:25:52;;;;;;;7.67;5.90;;;;;;;25.48;33.79;95682.34;5089921;28;20654;-65
2022/05/06 09:28:25;;;;;;;25.53;6.70;;;;;;;25.56;34.47;95678.00;5072010;28;20846;-69
2022/05/06 09:31:07;;;;;;;8.83;5.77;;;;;;;25.38;33.04;95676.59;5089732;28;20349;-62
2022/05/06 09:33:42;;;;;;;9.43;8.53;;;;;;;25.70;33.01;95675.78;5090300;28;20199;-60
2022/05/06 09:36:29;;;;;;;15.47;10.73;;;;;;;25.57;32.41;95683.03;5089572;28;20572;-61
2022/05/06 09:39:07;;;;;;;6.30;5.53;;;;;;;25.48;31.29;95678.84;5089745;28;20689;-60
2022/05/06 09:41:38;;;;;;;5.60;5.10;;;;;;;25.55;31.71;95671.03;5089672;28;20221;-60
2022/05/06 09:44:07;;;;;;;21.63;18.40;;;;;;;25.32;30.92;95672.50;5089329;28;20213;-59
2022/05/06 09:46:35;;;;;;;16.47;14.33;;;;;;;25.50;31.31;95676.63;5089690;28;20658;-61
2022/05/06 09:49:03;;;;;;;22.67;15.23;;;;;;;25.45;31.96;95668.78;5090397;28;20682;-60
2022/05/06 09:51:49;;;;;;;18.00;14.00;;;;;;;25.39;32.27;95662.06;5089456;28;20206;-60
2022/05/06 09:54:31;;;;;;;22.70;18.20;;;;;;;25.48;31.81;95668.13;5090063;28;20189;-60
2022/05/06 09:56:58;;;;;;;25.87;22.50;;;;;;;25.66;31.86;95677.56;5089259;28;20208;-60
2022/05/06 09:59:25;;;;;;;64.80;13.63;;;;;;;25.27;31.75;95667.34;5089218;28;20245;-60
2022/05/06 10:01:52;;;;;;;110.77;98.10;;;;;;;24.93;30.94;95669.19;5089109;28;20301;-60
2022/05/06 10:04:19;;;;;;;89.90;77.70;;;;;;;24.76;32.05;95669.31;5089434;28;20190;-59
2022/05/06 10:06:46;;;;;;;19.80;6.80;;;;;;;25.00;30.87;95685.53;5089317;28;20666;-66
2022/05/06 10:09:14;;;;;;;22.60;11.53;;;;;;;25.52;31.34;95663.66;5071279;28;20755;-59
2022/05/06 10:11:43;;;;;;;20.57;6.37;;;;;;;25.38;29.81;95661.28;5089337;28;20176;-60
2022/05/06 10:14:13;;;;;;;5.73;4.43;;;;;;;24.83;29.49;95663.44;5089591;28;20206;-61
2022/05/06 10:16:41;;;;;;;11.90;4.40;;;;;;;25.12;29.41;95659.91;5089030;28;20199;-61
2022/05/06 10:19:27;;;;;;;9.30;6.07;;;;;;;25.39;29.02;95664.75;5089285;28;20645;-59
2022/05/06 10:21:58;;;;;;;13.37;7.00;;;;;;;25.87;29.36;95659.50;5070806;28;20207;-59
2022/05/06 10:24:38;;;;;;;12.00;6.57;;;;;;;26.12;29.72;95661.13;5089160;28;20568;-60
2022/05/06 10:33:20;;;;;;;9.83;8.20;;;;;;;25.32;28.86;95659.09;5088375;28;20195;-58
2022/05/06 10:35:47;;;;;;;82.40;63.57;;;;;;;26.08;29.08;95649.47;5088554;28;20191;-59
2022/05/06 10:38:25;;;;;;;19.53;17.47;;;;;;;25.81;28.74;95645.50;5088748;28;20702;-59
2022/05/06 10:41:01;;;;;;;5.17;4.60;;;;;;;25.47;28.19;95650.47;5087570;28;20742;-60
2022/05/06 10:43:40;;;;;;;6.33;4.70;;;;;;;25.62;27.89;95641.78;5089297;28;20278;-60
2022/05/06 10:46:29;;;;;;;7.53;4.83;;;;;;;25.93;29.04;95647.41;5088670;28;20238;-60
2022/05/06 10:49:52;;;;;;;24.53;18.87;;;;;;;26.27;27.97;95638.19;5088809;28;20207;-60
2022/05/06 10:52:24;;;;;;;13.00;6.83;;;;;;;26.40;28.34;95640.53;5045851;28;20651;-60
2022/05/06 10:55:00;;;;;;;6.37;5.60;;;;;;;26.42;27.32;95632.91;5088332;28;20191;-59
2022/05/06 10:57:32;;;;;;;4.57;4.13;;;;;;;25.97;27.47;95640.25;5089116;28;20187;-60
2022/05/06 11:00:00;;;;;;;8.03;4.70;;;;;;;25.96;26.30;95639.50;5087972;28;20737;-59
2022/05/06 11:02:29;;;;;;;53.03;38.40;;;;;;;26.14;27.36;95629.34;5089509;28;20203;-59
2022/05/06 11:04:58;;;;;;;53.00;40.10;;;;;;;26.42;26.84;95622.16;5088398;28;20195;-61
2022/05/06 11:07:27;;;;;;;7.50;4.90;;;;;;;26.52;27.06;95627.09;5088697;28;20195;-60
2022/05/06 11:09:55;;;;;;;17.53;5.67;;;;;;;26.38;27.07;95617.81;5070507;28;20179;-59
2022/05/06 11:12:30;;;;;;;24.17;20.60;;;;;;;26.39;26.92;95627.41;5089240;28;20194;-60
2022/05/06 11:14:57;;;;;;;50.77;45.77;;;;;;;26.61;27.05;95625.06;5088789;28;20201;-59
2022/05/06 11:17:25;;;;;;;22.03;16.93;;;;;;;26.52;26.17;95621.69;5088618;28;20244;-59
2022/05/06 11:19:52;;;;;;;11.93;6.63;;;;;;;26.10;25.40;95620.38;5089686;28;20222;-59
2022/05/06 11:22:20;;;;;;;30.03;23.27;;;;;;;26.30;25.97;95616.78;5092879;28;20192;-60
2022/05/06 11:24:47;;;;;;;22.87;18.10;;;;;;;26.61;26.29;95608.91;5092228;28;20736;-57
2022/05/06 11:27:21;;;;;;;33.07;29.47;;;;;;;26.71;25.32;95608.50;5092832;28;20203;-58
2022/05/06 11:29:57;;;;;;;8.33;6.50;;;;;;;26.85;25.30;95610.78;5092135;28;20208;-60
2022/05/06 11:32:28;;;;;;;36.07;26.17;;;;;;;26.93;25.23;95596.44;5092422;28;20190;-60
2022/05/06 11:35:15;;;;;;;30.77;22.60;;;;;;;26.22;25.46;95601.59;5092197;28;20246;-59
2022/05/06 11:37:42;;;;;;;16.67;12.93;;;;;;;26.62;24.45;95599.72;5092332;28;20780;-57
2022/05/06 11:42:51;;;;;;;18.30;16.37;;;;;;;27.08;25.19;95601.06;5092503;28;20191;-60
2022/05/06 11:48:07;;;;;;;10.93;5.50;;;;;;;26.87;24.45;95590.50;5092413;28;20203;-64
2022/05/06 11:50:36;;;;;;;19.13;13.43;;;;;;;27.17;24.21;95582.88;5091948;28;20222;-60
2022/05/06 11:53:06;;;;;;;10.57;9.33;;;;;;;27.08;24.21;95592.22;5092212;28;20198;-63
2022/05/06 11:55:35;;;;;;;45.40;35.97;;;;;;;27.60;25.04;95579.41;5092065;28;20230;-60
2022/05/06 11:58:07;;;;;;;112.53;88.30;;;;;;;27.57;23.70;95585.50;5092376;28;20250;-60
2022/05/06 12:00:35;;;;;;;112.03;83.57;;;;;;;27.81;24.00;95563.78;5091001;28;20769;-64
2022/05/06 12:03:04;;;;;;;60.73;48.53;;;;;;;27.74;23.77;95572.47;5091680;28;20226;-64
2022/05/06 12:05:32;;;;;;;30.40;22.97;;;;;;;27.79;24.69;95579.53;5091049;28;20191;-65
2022/05/06 12:08:00;;;;;;;24.27;16.13;;;;;;;27.95;23.64;95569.56;5092041;28;20690;-66
2022/05/06 12:10:29;;;;;;;16.17;5.97;;;;;;;27.87;23.69;95570.47;5091355;28;20681;-64
2022/05/06 12:12:56;;;;;;;8.73;5.47;;;;;;;28.04;23.47;95564.75;5091617;28;20191;-64
2022/05/06 12:15:37;;;;;;;12.43;8.53;;;;;;;28.23;22.07;95559.41;5091060;28;20674;-58
2022/05/06 12:18:11;;;;;;;6.57;4.33;;;;;;;28.41;22.02;95560.59;5091319;28;20211;-60
2022/05/06 12:20:41;;;;;;;6.97;4.40;;;;;;;28.48;22.45;95566.16;5091165;28;20207;-63
2022/05/06 12:23:11;;;;;;;4.40;3.83;;;;;;;28.35;22.17;95559.31;5091630;28;20694;-65
2022/05/06 12:25:39;;;;;;;7.83;4.93;;;;;;;28.79;21.95;95539.09;5091381;28;20324;-67
2022/05/06 12:28:07;;;;;;;8.47;5.43;;;;;;;28.70;21.51;95541.19;5091133;28;20198;-61
2022/05/06 12:30:36;;;;;;;3.00;2.50;;;;;;;27.21;20.46;95545.31;5090678;28;20245;-64